CFG6931 LEPA-EDDH
Flight info
| Callsign | CFG6931 |
|---|---|
| Flight time | N/A |
| Altitude | 34000 |
| Route | MEROS N853 LUMAS DCT MAXIR DCT LUSOL DCT BODRU DCT OKTET DCT IRMAR DCT KINES/N0448F360 DCT VANAS DCT MOBLO DCT UBIMA DCT SOSAL DCT KORED DCT BERSU N871 DITON/N0447F350 DCT LOKTA DCT TEDGO DCT HAREM DCT LOHRE DCT ELNAT/N0450F360 P605 NOLGO NOLGO6A |
| Aircraft | A321/M-SDE3FGHIRWY/LB1 |
Departure
| Time | 2026-05-07 18:13 |
|---|---|
| Airport | Palma de Mallorca Airport (LEPA) |
Arrival
| Time | N/A |
|---|---|
| Airport | Hamburg Helmut Schmidt Airport (EDDH) |
| Time | Latitude | Longitude | Altitude | Speed | Heading |
|---|---|---|---|---|---|
| 2026-05-07 16:35 | 39.55255 | 2.73224 | 38 ft | 0 kts | 196° |
| 2026-05-07 17:55 | 39.55267 | 2.73228 | 38 ft | 3 kts | 191° |
| 2026-05-07 17:55 | 39.55290 | 2.73231 | 36 ft | 3 kts | 173° |
| 2026-05-07 17:55 | 39.55312 | 2.73223 | 38 ft | 3 kts | 140° |
| 2026-05-07 17:55 | 39.55323 | 2.73201 | 34 ft | 3 kts | 88° |
| 2026-05-07 17:56 | 39.55320 | 2.73184 | 35 ft | 1 kts | 58° |
| 2026-05-07 17:56 | 39.55319 | 2.73181 | 36 ft | 0 kts | 58° |
| 2026-05-07 17:59 | 39.55323 | 2.73191 | 35 ft | 4 kts | 58° |
| 2026-05-07 17:59 | 39.55347 | 2.73242 | 37 ft | 10 kts | 59° |
| 2026-05-07 17:59 | 39.55393 | 2.73340 | 37 ft | 16 kts | 58° |
| 2026-05-07 17:59 | 39.55409 | 2.73459 | 38 ft | 10 kts | 142° |
| 2026-05-07 18:00 | 39.55353 | 2.73497 | 35 ft | 10 kts | 149° |
| 2026-05-07 18:00 | 39.55278 | 2.73556 | 38 ft | 15 kts | 149° |
| 2026-05-07 18:00 | 39.55182 | 2.73631 | 38 ft | 14 kts | 145° |
| 2026-05-07 18:00 | 39.55173 | 2.73736 | 38 ft | 12 kts | 115° |
| 2026-05-07 18:01 | 39.55179 | 2.73828 | 38 ft | 9 kts | 93° |
| 2026-05-07 18:01 | 39.55137 | 2.73881 | 38 ft | 9 kts | 149° |
| 2026-05-07 18:01 | 39.55067 | 2.73936 | 38 ft | 15 kts | 148° |
| 2026-05-07 18:01 | 39.54971 | 2.74012 | 38 ft | 16 kts | 149° |
| 2026-05-07 18:02 | 39.54789 | 2.74113 | 38 ft | 13 kts | 209° |
| 2026-05-07 18:02 | 39.54740 | 2.74023 | 37 ft | 12 kts | 238° |
| 2026-05-07 18:02 | 39.54698 | 2.73934 | 38 ft | 12 kts | 238° |
| 2026-05-07 18:03 | 39.54655 | 2.73843 | 38 ft | 12 kts | 238° |
| 2026-05-07 18:03 | 39.54611 | 2.73750 | 38 ft | 12 kts | 239° |
| 2026-05-07 18:03 | 39.54557 | 2.73677 | 38 ft | 9 kts | 191° |
| 2026-05-07 18:03 | 39.54524 | 2.73692 | 38 ft | 0 kts | 149° |
| 2026-05-07 18:05 | 39.54523 | 2.73694 | 38 ft | 0 kts | 149° |
| 2026-05-07 18:05 | 39.54521 | 2.73695 | 38 ft | 0 kts | 149° |
| 2026-05-07 18:10 | 39.54519 | 2.73697 | 38 ft | 2 kts | 149° |
| 2026-05-07 18:10 | 39.54481 | 2.73726 | 38 ft | 10 kts | 149° |
| 2026-05-07 18:10 | 39.54431 | 2.73788 | 38 ft | 10 kts | 107° |
| 2026-05-07 18:11 | 39.54441 | 2.73835 | 38 ft | 0 kts | 59° |
| 2026-05-07 18:12 | 39.54455 | 2.73866 | 38 ft | 21 kts | 59° |
| 2026-05-07 18:12 | 39.54663 | 2.74308 | 38 ft | 91 kts | 58° |
| 2026-05-07 18:12 | 39.55093 | 2.75213 | 43 ft | 142 kts | 58° |
| 2026-05-07 18:13 | 39.55630 | 2.76330 | 618 ft | 141 kts | 58° |
| 2026-05-07 18:13 | 39.56138 | 2.77421 | 1218 ft | 142 kts | 58° |
| 2026-05-07 18:13 | 39.56661 | 2.78583 | 1539 ft | 159 kts | 60° |
| 2026-05-07 18:13 | 39.57251 | 2.79895 | 1765 ft | 179 kts | 60° |
| 2026-05-07 18:14 | 39.57919 | 2.81371 | 1925 ft | 200 kts | 60° |
| 2026-05-07 18:14 | 39.58637 | 2.82962 | 2289 ft | 208 kts | 60° |
| 2026-05-07 18:14 | 39.59370 | 2.84584 | 2915 ft | 209 kts | 60° |
| 2026-05-07 18:14 | 39.60109 | 2.86214 | 3583 ft | 210 kts | 60° |
| 2026-05-07 18:15 | 39.60864 | 2.87869 | 3928 ft | 215 kts | 60° |
| 2026-05-07 18:15 | 39.61629 | 2.89540 | 4005 ft | 215 kts | 60° |
| 2026-05-07 18:15 | 39.62386 | 2.91206 | 4471 ft | 224 kts | 61° |
| 2026-05-07 18:15 | 39.63207 | 2.93077 | 4812 ft | 247 kts | 61° |
| 2026-05-07 18:16 | 39.64061 | 2.95050 | 5330 ft | 259 kts | 62° |
| 2026-05-07 18:16 | 39.64948 | 2.97109 | 6055 ft | 263 kts | 62° |
| 2026-05-07 18:16 | 39.65844 | 2.99185 | 6768 ft | 266 kts | 62° |
| 2026-05-07 18:16 | 39.66754 | 3.01293 | 7433 ft | 270 kts | 61° |
| 2026-05-07 18:17 | 39.67680 | 3.03434 | 8164 ft | 273 kts | 62° |
| 2026-05-07 18:17 | 39.68617 | 3.05595 | 8887 ft | 277 kts | 63° |
| 2026-05-07 18:17 | 39.69563 | 3.07781 | 9678 ft | 279 kts | 63° |
| 2026-05-07 18:17 | 39.70524 | 3.10009 | 10197 ft | 290 kts | 63° |
| 2026-05-07 18:18 | 39.71543 | 3.12377 | 10340 ft | 311 kts | 63° |
| 2026-05-07 18:18 | 39.72633 | 3.14916 | 10470 ft | 333 kts | 63° |
| 2026-05-07 18:18 | 39.73788 | 3.17602 | 10850 ft | 345 kts | 62° |
| 2026-05-07 18:18 | 39.74967 | 3.20338 | 11440 ft | 350 kts | 62° |
| 2026-05-07 18:19 | 39.76145 | 3.23063 | 12059 ft | 352 kts | 62° |
| 2026-05-07 18:19 | 39.77382 | 3.25835 | 12657 ft | 357 kts | 58° |
| 2026-05-07 18:19 | 39.78951 | 3.28379 | 13263 ft | 363 kts | 51° |
| 2026-05-07 18:19 | 39.80611 | 3.30859 | 13863 ft | 366 kts | 51° |
| 2026-05-07 18:20 | 39.82290 | 3.33377 | 14377 ft | 370 kts | 51° |
| 2026-05-07 18:20 | 39.83986 | 3.35921 | 14889 ft | 374 kts | 51° |
| 2026-05-07 18:20 | 39.85704 | 3.38495 | 15405 ft | 378 kts | 51° |
| 2026-05-07 18:20 | 39.87437 | 3.41096 | 15823 ft | 382 kts | 51° |
| 2026-05-07 18:21 | 39.89180 | 3.43724 | 15924 ft | 383 kts | 51° |
| 2026-05-07 18:21 | 39.90923 | 3.46351 | 15946 ft | 383 kts | 51° |
| 2026-05-07 18:21 | 39.92667 | 3.48978 | 15948 ft | 383 kts | 51° |
| 2026-05-07 18:21 | 39.94394 | 3.51580 | 16195 ft | 386 kts | 51° |
| 2026-05-07 18:22 | 39.96156 | 3.54236 | 16742 ft | 389 kts | 51° |
| 2026-05-07 18:22 | 39.97354 | 3.56043 | 17084 ft | 391 kts | 51° |
| 2026-05-07 18:22 | 39.99720 | 3.59615 | 17799 ft | 394 kts | 52° |
| 2026-05-07 18:22 | 40.01517 | 3.62332 | 18293 ft | 397 kts | 52° |
| 2026-05-07 18:23 | 40.03329 | 3.65076 | 18693 ft | 401 kts | 52° |
| 2026-05-07 18:23 | 40.05158 | 3.67851 | 19078 ft | 405 kts | 52° |
| 2026-05-07 18:23 | 40.07035 | 3.70611 | 19451 ft | 410 kts | 46° |
| 2026-05-07 18:23 | 40.09352 | 3.72838 | 19806 ft | 417 kts | 32° |
| 2026-05-07 18:24 | 40.11858 | 3.74782 | 20196 ft | 421 kts | 32° |
| 2026-05-07 18:24 | 40.14354 | 3.76705 | 20574 ft | 424 kts | 32° |
| 2026-05-07 18:24 | 40.16907 | 3.78667 | 20962 ft | 427 kts | 31° |
| 2026-05-07 18:24 | 40.19475 | 3.80642 | 21354 ft | 431 kts | 32° |
| 2026-05-07 18:25 | 40.22014 | 3.82600 | 21721 ft | 434 kts | 32° |
| 2026-05-07 18:25 | 40.24622 | 3.84615 | 22101 ft | 437 kts | 32° |
| 2026-05-07 18:25 | 40.27254 | 3.86656 | 22479 ft | 440 kts | 32° |
| 2026-05-07 18:25 | 40.29894 | 3.88711 | 22851 ft | 443 kts | 32° |
| 2026-05-07 18:26 | 40.32524 | 3.90763 | 23229 ft | 446 kts | 31° |
| 2026-05-07 18:26 | 40.35185 | 3.92838 | 23588 ft | 449 kts | 31° |
| 2026-05-07 18:26 | 40.37915 | 3.94966 | 23893 ft | 452 kts | 31° |
| 2026-05-07 18:26 | 40.40615 | 3.97065 | 24207 ft | 455 kts | 31° |
| 2026-05-07 18:27 | 40.43311 | 3.99159 | 24519 ft | 457 kts | 31° |
| 2026-05-07 18:27 | 40.46062 | 4.01300 | 24830 ft | 459 kts | 31° |
| 2026-05-07 18:27 | 40.48815 | 4.03448 | 25124 ft | 462 kts | 31° |
| 2026-05-07 18:27 | 40.50661 | 4.04890 | 25314 ft | 464 kts | 31° |
| 2026-05-07 18:28 | 40.54400 | 4.07818 | 25687 ft | 468 kts | 31° |
| 2026-05-07 18:28 | 40.55992 | 4.09068 | 25859 ft | 469 kts | 31° |